Time;durP1;ratioP1;P1;durP2;ratioP2;P2;SDS_P1;SDS_P2;PMS_P1;PMS_P2;Temp;Humidity;BMP_temperature;BMP_pressure;BME280_temperature;BME280_humidity;BME280_pressure;Samples;Min_cycle;Max_cycle;Signal;HPM_P1;HPM_P2
2022/02/03 00:00:44;;;;;;;7.77;6.97;;;8.10;99.90;;;;;;5076264;28;20186;-89
2022/02/03 00:03:23;;;;;;;9.73;7.10;;;8.10;99.90;;;;;;5080446;28;20221;-89
2022/02/03 00:05:55;;;;;;;7.27;6.57;;;8.00;99.90;;;;;;5090737;28;20236;-89
2022/02/03 00:11:41;;;;;;;7.47;6.77;;;8.00;99.90;;;;;;5031012;28;20357;-89
2022/02/03 00:17:04;;;;;;;7.50;6.80;;;8.00;99.90;;;;;;5104180;28;20171;-89
2022/02/03 00:22:35;;;;;;;7.23;6.53;;;8.10;99.90;;;;;;5064343;28;20210;-89
2022/02/03 00:25:13;;;;;;;6.90;6.03;;;8.10;99.90;;;;;;5086409;28;20242;-89
2022/02/03 00:30:56;;;;;;;6.37;5.80;;;8.20;99.90;;;;;;5107964;28;20258;-89
2022/02/03 00:49:10;;;;;;;6.10;5.57;;;7.80;99.90;;;;;;5079947;28;20756;-90
2022/02/03 00:51:39;;;;;;;7.13;6.00;;;7.90;99.90;;;;;;5060255;28;20187;-90
2022/02/03 00:54:09;;;;;;;7.60;6.80;;;7.80;99.90;;;;;;5070050;28;20191;-89
2022/02/03 00:56:37;;;;;;;7.57;6.77;;;7.80;99.90;;;;;;5081704;28;20294;-90
2022/02/03 00:59:28;;;;;;;7.43;6.80;;;7.80;99.90;;;;;;5061151;28;20310;-90
2022/02/03 01:01:58;;;;;;;7.23;6.53;;;7.80;99.90;;;;;;5070320;28;20195;-90
2022/02/03 01:04:28;;;;;;;7.73;6.93;;;7.80;99.90;;;;;;5081475;28;20294;-90
2022/02/03 01:06:56;;;;;;;7.60;6.90;;;7.70;99.90;;;;;;5087681;28;20188;-90
2022/02/03 01:09:28;;;;;;;7.80;6.77;;;7.70;99.90;;;;;;5061694;28;20285;-89
2022/02/03 01:12:11;;;;;;;10.17;7.03;;;7.70;99.90;;;;;;5051715;28;20203;-90
2022/02/03 01:15:14;;;;;;;7.93;7.13;;;7.70;99.90;;;;;;5086357;28;20553;-90
2022/02/03 01:36:57;;;;;;;7.80;6.83;;;7.90;99.90;;;;;;5072369;28;20195;-90
2022/02/03 01:48:17;;;;;;;7.63;6.53;;;7.80;99.90;;;;;;5080607;28;20320;-89
2022/02/03 01:52:40;;;;;;;8.60;6.83;;;8.00;99.90;;;;;;5082189;28;20175;-90
2022/02/03 01:55:12;;;;;;;7.83;7.03;;;8.00;99.90;;;;;;5065061;28;20191;-89
2022/02/03 01:57:51;;;;;;;7.60;6.80;;;8.00;99.90;;;;;;5064484;28;20226;-90
2022/02/03 02:00:18;;;;;;;7.77;6.97;;;7.90;99.90;;;;;;5080946;28;20203;-90
2022/02/03 02:03:06;;;;;;;7.97;7.27;;;7.90;99.90;;;;;;5066715;28;20191;-89
2022/02/03 02:05:57;;;;;;;7.10;6.43;;;7.90;99.90;;;;;;5084397;28;20291;-90
2022/02/03 02:08:42;;;;;;;7.03;6.37;;;7.90;99.90;;;;;;5085759;28;20289;-90
2022/02/03 02:11:55;;;;;;;7.00;6.30;;;8.00;99.90;;;;;;5081932;28;20198;-89
2022/02/03 02:17:49;;;;;;;6.90;6.30;;;8.00;99.90;;;;;;5091338;28;20213;-90
2022/02/03 02:37:17;;;;;;;6.97;6.37;;;8.00;99.90;;;;;;5080570;28;20229;-89
2022/02/03 02:40:09;;;;;;;8.37;7.57;;;8.10;99.90;;;;;;5080387;28;20562;-89
2022/02/03 02:42:55;;;;;;;8.20;7.40;;;8.00;99.90;;;;;;5081201;28;20246;-89
2022/02/03 02:46:01;;;;;;;8.37;7.57;;;7.90;99.90;;;;;;5089625;28;20207;-90
2022/02/03 02:48:51;;;;;;;7.97;7.27;;;7.90;99.90;;;;;;5067377;28;20712;-89
2022/02/03 02:51:26;;;;;;;8.53;7.73;;;7.90;99.90;;;;;;5074421;28;20187;-90
2022/02/03 02:54:43;;;;;;;8.10;7.30;;;7.80;99.90;;;;;;5063975;28;20201;-90
2022/02/03 02:57:35;;;;;;;8.10;7.40;;;7.90;99.90;;;;;;5078105;28;20188;-89
2022/02/03 03:30:55;;;;;;;7.57;6.87;;;7.90;99.90;;;;;;5090260;28;20254;-89
2022/02/03 03:35:59;;;;;;;7.47;6.70;;;8.00;99.90;;;;;;5091418;28;20581;-89
2022/02/03 03:38:29;;;;;;;6.97;6.37;;;7.90;99.90;;;;;;5080852;28;20211;-90
2022/02/03 03:40:57;;;;;;;7.50;6.80;;;7.90;99.90;;;;;;5078022;28;20199;-89
2022/02/03 03:43:43;;;;;;;7.33;6.63;;;7.90;99.90;;;;;;5067155;28;20246;-89
2022/02/03 03:46:14;;;;;;;8.00;7.20;;;7.90;99.90;;;;;;5087841;28;20218;-90
2022/02/03 03:48:50;;;;;;;7.97;7.17;;;7.90;99.90;;;;;;5071436;28;20222;-89
2022/02/03 03:51:21;;;;;;;8.33;7.23;;;8.00;99.90;;;;;;5064978;28;20773;-90
2022/02/03 03:54:01;;;;;;;8.27;7.40;;;7.90;99.90;;;;;;5063852;28;20198;-90
2022/02/03 03:56:37;;;;;;;7.80;6.97;;;7.90;99.90;;;;;;5079125;28;20195;-90
2022/02/03 05:04:04;;;;;;;10.13;8.10;;;7.70;99.90;;;;;;5089884;28;20206;-91
2022/02/03 05:07:29;;;;;;;9.53;8.63;;;7.60;99.90;;;;;;5051945;28;20194;-91
2022/02/03 05:10:52;;;;;;;8.90;8.00;;;7.70;99.90;;;;;;5086202;28;20215;-91
2022/02/03 05:19:51;;;;;;;11.53;8.87;;;7.60;99.90;;;;;;5100720;28;20199;-91
2022/02/03 05:32:33;;;;;;;9.00;8.10;;;7.70;99.90;;;;;;5078154;28;20268;-91
2022/02/03 06:05:08;;;;;;;8.43;7.63;;;7.60;99.90;;;;;;5075141;28;20501;-92
2022/02/03 06:07:43;;;;;;;11.43;7.57;;;7.50;99.90;;;;;;5069139;28;20578;-92
2022/02/03 06:21:29;;;;;;;9.37;8.47;;;7.40;99.90;;;;;;5058575;28;20768;-92
2022/02/03 06:24:14;;;;;;;9.53;8.63;;;7.30;99.90;;;;;;5077752;28;20256;-92
2022/02/03 06:29:27;;;;;;;9.10;8.27;;;7.40;99.90;;;;;;5092635;28;20222;-92
2022/02/03 06:31:54;;;;;;;10.10;9.03;;;7.30;99.90;;;;;;5093293;28;20174;-92
2022/02/03 06:34:21;;;;;;;9.57;8.57;;;7.40;99.90;;;;;;5100896;28;20256;-91
2022/02/03 06:36:50;;;;;;;9.97;9.00;;;7.30;99.90;;;;;;5065997;28;20250;-91
2022/02/03 06:39:22;;;;;;;9.93;8.47;;;7.30;99.90;;;;;;5087247;28;20210;-92
2022/02/03 06:41:52;;;;;;;9.43;8.53;;;7.30;99.90;;;;;;5105390;28;20193;-91
2022/02/03 06:44:20;;;;;;;10.77;9.57;;;7.30;99.90;;;;;;5104437;28;20206;-91
2022/02/03 06:46:50;;;;;;;11.73;9.57;;;7.20;99.90;;;;;;5081456;28;20194;-91
2022/02/03 06:49:30;;;;;;;10.90;9.80;;;7.20;99.90;;;;;;5098575;28;20203;-90
2022/02/03 06:52:02;;;;;;;11.20;9.73;;;7.20;99.90;;;;;;5096465;28;20175;-91
2022/02/03 06:55:19;;;;;;;11.53;10.33;;;7.20;99.90;;;;;;5094859;28;20198;-91
2022/02/03 06:57:25;;;;;;;11.43;10.23;;;7.20;99.90;;;;;;5091987;28;20250;-92
2022/02/03 07:00:01;;;;;;;12.87;11.50;;;7.20;99.90;;;;;;5099803;28;20206;-92
2022/02/03 07:02:30;;;;;;;11.83;10.63;;;7.10;99.90;;;;;;5096259;28;20175;-91
2022/02/03 07:04:57;;;;;;;12.47;10.67;;;7.30;99.90;;;;;;5083393;28;20215;-90
2022/02/03 07:07:23;;;;;;;13.70;11.23;;;7.40;99.90;;;;;;5100601;28;20175;-91
2022/02/03 07:09:51;;;;;;;12.43;11.13;;;7.40;99.90;;;;;;5105272;28;20218;-90
2022/02/03 07:12:17;;;;;;;13.67;12.27;;;7.20;99.90;;;;;;5125035;28;20183;-91
2022/02/03 07:14:43;;;;;;;14.50;12.67;;;7.10;99.90;;;;;;5106532;28;20190;-91
2022/02/03 07:17:09;;;;;;;12.57;11.27;;;7.10;99.90;;;;;;5101445;28;20251;-92
2022/02/03 07:19:40;;;;;;;14.60;12.03;;;7.20;99.90;;;;;;5118624;28;20210;-91
2022/02/03 07:22:06;;;;;;;13.63;11.23;;;7.20;99.90;;;;;;5100721;28;20193;-90
2022/02/03 07:24:31;;;;;;;12.53;11.20;;;7.20;99.90;;;;;;5084383;28;20665;-91
2022/02/03 07:26:57;;;;;;;15.07;13.57;;;7.20;99.90;;;;;;5101886;28;20199;-91
2022/02/03 07:29:22;;;;;;;12.87;11.30;;;7.30;99.90;;;;;;5100235;28;20271;-91
2022/02/03 07:31:48;;;;;;;13.07;11.60;;;7.30;99.90;;;;;;5078786;28;20221;-91
2022/02/03 07:34:16;;;;;;;12.90;11.60;;;7.20;99.90;;;;;;5063933;28;20226;-90
2022/02/03 07:36:44;;;;;;;12.50;11.20;;;7.30;99.90;;;;;;5081912;28;20195;-91
2022/02/03 07:39:11;;;;;;;13.67;11.60;;;7.30;99.90;;;;;;5088559;28;20214;-91
2022/02/03 07:41:36;;;;;;;12.73;11.43;;;7.30;99.90;;;;;;5100684;28;20697;-91
2022/02/03 07:44:03;;;;;;;12.97;11.40;;;7.30;99.90;;;;;;5084810;28;20213;-91
2022/02/03 07:46:30;;;;;;;12.90;11.60;;;7.30;99.90;;;;;;5085399;28;20214;-91
2022/02/03 07:48:57;;;;;;;12.77;11.47;;;7.30;99.90;;;;;;5101732;28;20210;-91
2022/02/03 07:51:23;;;;;;;11.83;10.73;;;7.50;99.90;;;;;;5095447;28;20197;-91
2022/02/03 07:53:49;;;;;;;13.93;11.33;;;7.50;99.90;;;;;;5093677;28;20183;-91
2022/02/03 07:56:15;;;;;;;12.13;10.50;;;7.40;99.90;;;;;;5095743;28;20194;-91
2022/02/03 07:58:41;;;;;;;12.17;10.93;;;7.60;99.90;;;;;;5098250;28;20221;-91
2022/02/03 08:01:06;;;;;;;12.33;11.07;;;7.60;99.90;;;;;;5085716;28;20192;-91
2022/02/03 08:03:32;;;;;;;13.87;11.30;;;7.50;99.90;;;;;;5092060;28;20190;-90
2022/02/03 08:06:03;;;;;;;14.00;10.60;;;7.50;99.90;;;;;;5089231;28;20225;-91
2022/02/03 08:08:37;;;;;;;13.80;11.47;;;7.50;99.90;;;;;;5105943;28;20202;-91
2022/02/03 08:11:08;;;;;;;11.43;10.37;;;7.40;99.90;;;;;;5080852;28;20209;-91
2022/02/03 08:13:47;;;;;;;13.20;11.40;;;7.50;99.90;;;;;;5082605;28;20193;-91
2022/02/03 08:16:20;;;;;;;13.93;12.10;;;7.40;99.90;;;;;;5102189;28;20166;-91
2022/02/03 08:18:47;;;;;;;12.03;10.60;;;7.40;99.90;;;;;;5080926;28;20206;-91
2022/02/03 08:21:15;;;;;;;14.47;11.23;;;7.40;99.90;;;;;;5085801;28;20189;-91
2022/02/03 08:24:00;;;;;;;11.83;10.63;;;7.60;99.90;;;;;;5085552;28;20178;-91
2022/02/03 08:26:43;;;;;;;11.90;10.27;;;7.70;99.90;;;;;;5084230;28;20244;-91
2022/02/03 08:29:28;;;;;;;11.07;10.00;;;7.70;99.90;;;;;;5064270;28;20240;-90
2022/02/03 08:32:04;;;;;;;11.93;10.73;;;7.70;99.90;;;;;;5079408;28;20223;-91
2022/02/03 08:34:48;;;;;;;11.37;10.27;;;7.70;99.90;;;;;;5098152;28;20182;-91
2022/02/03 08:37:15;;;;;;;11.63;10.43;;;7.70;99.90;;;;;;5099499;28;20196;-91
2022/02/03 08:39:52;;;;;;;11.87;10.67;;;7.60;99.90;;;;;;5083711;28;20240;-88
2022/02/03 08:42:19;;;;;;;11.47;10.27;;;7.70;99.90;;;;;;5088040;28;20218;-88
2022/02/03 08:44:45;;;;;;;10.83;9.77;;;7.70;99.90;;;;;;5107165;28;20202;-89
2022/02/03 08:47:12;;;;;;;9.27;8.40;;;7.90;99.90;;;;;;5082846;28;20972;-87
2022/02/03 08:49:42;;;;;;;8.73;7.93;;;8.00;99.90;;;;;;5104509;28;20532;-91
2022/02/03 08:52:16;;;;;;;8.93;8.03;;;8.00;99.90;;;;;;5103949;28;20191;-90
2022/02/03 08:54:49;;;;;;;8.73;7.83;;;7.90;99.90;;;;;;5101161;28;20259;-91
2022/02/03 08:57:23;;;;;;;8.77;7.97;;;7.80;99.90;;;;;;5106962;28;20277;-91
2022/02/03 09:28:28;;;;;;;8.17;7.37;;;7.90;99.90;;;;;;5084895;28;20672;-90
2022/02/03 09:35:30;;;;;;;7.17;6.30;;;8.20;99.90;;;;;;5101223;28;20577;-90
2022/02/03 09:38:23;;;;;;;7.63;6.67;;;8.40;99.90;;;;;;5101260;28;20277;-90
2022/02/03 09:58:10;;;;;;;5.67;5.17;;;8.60;99.90;;;;;;5095191;28;20195;-90
2022/02/03 10:00:32;;;;;;;5.40;4.90;;;8.70;99.90;;;;;;5095965;28;20371;-90
2022/02/03 10:03:00;;;;;;;5.77;5.17;;;8.70;99.90;;;;;;5084271;28;20604;-90
2022/02/03 10:05:34;;;;;;;5.63;4.90;;;8.70;99.90;;;;;;5086163;28;20221;-90
2022/02/03 10:08:00;;;;;;;5.87;5.37;;;8.70;99.90;;;;;;5070051;28;20189;-89
2022/02/03 10:10:29;;;;;;;5.97;5.30;;;8.80;99.90;;;;;;5080253;28;20498;-90
2022/02/03 10:12:55;;;;;;;5.63;4.80;;;8.80;99.90;;;;;;5070069;28;20195;-90
2022/02/03 10:15:21;;;;;;;5.40;4.90;;;8.70;99.90;;;;;;5101250;28;20186;-90
2022/02/03 10:17:50;;;;;;;5.00;4.60;;;8.60;99.90;;;;;;5100128;28;20255;-90
2022/02/03 10:20:19;;;;;;;5.53;4.63;;;8.90;99.90;;;;;;5081278;28;20230;-90
2022/02/03 10:22:50;;;;;;;5.70;5.20;;;8.80;99.90;;;;;;5079255;28;20289;-90
2022/02/03 10:25:29;;;;;;;5.50;5.00;;;9.00;99.90;;;;;;5098237;28;20265;-90
2022/02/03 10:28:02;;;;;;;4.93;4.53;;;9.00;99.90;;;;;;5082327;28;20182;-90
2022/02/03 10:33:40;;;;;;;4.50;3.90;;;8.90;99.90;;;;;;5016613;28;20186;-90
2022/02/03 10:36:17;;;;;;;4.40;4.00;;;9.10;99.90;;;;;;5003201;28;20200;-90
2022/02/03 11:02:48;;;;;;;4.53;4.13;;;9.60;99.90;;;;;;5092843;28;20193;-90
2022/02/03 11:08:11;;;;;;;5.90;5.23;;;9.50;99.90;;;;;;5107535;28;20209;-90
2022/02/03 11:10:41;;;;;;;4.30;3.90;;;9.60;99.90;;;;;;5091758;28;20166;-90
2022/02/03 11:13:10;;;;;;;3.97;3.60;;;9.60;99.90;;;;;;5083264;28;20190;-90
2022/02/03 11:15:36;;;;;;;4.97;3.90;;;9.70;99.90;;;;;;5080001;28;20190;-90
2022/02/03 11:18:07;;;;;;;3.57;3.27;;;9.50;99.90;;;;;;5096444;28;20740;-91
2022/02/03 11:20:38;;;;;;;3.87;3.53;;;9.50;99.90;;;;;;5081321;28;20197;-90
2022/02/03 11:25:56;;;;;;;3.47;3.17;;;9.60;99.90;;;;;;5101844;28;20252;-91
2022/02/03 11:57:07;;;;;;;4.00;3.17;;;9.80;99.90;;;;;;5077170;28;20229;-85
2022/02/03 12:17:56;;;;;;;2.67;2.43;;;9.90;99.90;;;;;;5078319;28;20259;-85
2022/02/03 12:23:52;;;;;;;2.50;2.30;;;10.00;99.90;;;;;;5079322;28;20194;-85
2022/02/03 12:26:33;;;;;;;3.10;2.30;;;9.90;99.90;;;;;;5093455;28;20214;-85
2022/02/03 12:29:05;;;;;;;3.97;2.10;;;9.90;99.90;;;;;;5105291;28;20319;-82
2022/02/03 12:40:00;;;;;;;3.13;2.53;;;10.30;99.90;;;;;;5113633;28;20205;-83
2022/02/03 12:45:16;;;;;;;2.23;2.10;;;10.20;99.90;;;;;;5099645;28;20209;-83
2022/02/03 12:47:45;;;;;;;2.00;1.90;;;10.30;99.90;;;;;;5099003;28;20225;-84
2022/02/03 12:50:22;;;;;;;2.60;2.40;;;10.20;99.90;;;;;;5103623;28;20186;-83
2022/02/03 12:52:47;;;;;;;3.63;2.77;;;10.20;99.90;;;;;;5099029;28;20213;-83
2022/02/03 12:55:23;;;;;;;1.93;1.77;;;10.30;99.90;;;;;;5096316;28;20190;-84
2022/02/03 12:57:51;;;;;;;4.20;2.60;;;10.20;99.90;;;;;;5100235;28;20210;-84
2022/02/03 13:00:26;;;;;;;2.70;1.90;;;10.10;99.90;;;;;;5109943;28;20182;-83
2022/02/03 13:02:54;;;;;;;2.50;2.00;;;10.00;99.90;;;;;;5105540;28;20194;-82
2022/02/03 13:05:25;;;;;;;3.07;2.20;;;10.00;99.90;;;;;;5098390;28;20195;-82
2022/02/03 13:08:03;;;;;;;3.40;2.10;;;10.00;99.90;;;;;;5100447;28;20203;-84
2022/02/03 13:10:35;;;;;;;3.20;2.90;;;10.10;99.90;;;;;;5083570;28;21164;-85
2022/02/03 13:13:21;;;;;;;2.47;2.20;;;10.20;99.90;;;;;;5079962;28;20225;-84
2022/02/03 13:15:47;;;;;;;2.40;2.20;;;10.10;99.90;;;;;;5100926;28;20300;-84
2022/02/03 13:18:22;;;;;;;6.97;6.30;;;10.10;99.90;;;;;;5100660;28;20229;-84
2022/02/03 13:20:59;;;;;;;4.53;2.60;;;10.20;99.90;;;;;;5097774;28;20181;-85
2022/02/03 13:23:28;;;;;;;3.13;2.60;;;10.30;99.90;;;;;;5098417;28;20668;-84
2022/02/03 13:31:15;;;;;;;4.03;2.90;;;10.20;99.90;;;;;;5102112;28;20187;-83
2022/02/03 13:33:46;;;;;;;3.80;3.23;;;10.30;99.00;;;;;;5103985;28;20208;-83
2022/02/03 13:36:21;;;;;;;3.17;2.80;;;10.20;99.70;;;;;;5102008;28;20385;-83
2022/02/03 13:39:07;;;;;;;3.37;3.03;;;10.20;99.90;;;;;;5093878;28;20214;-84
2022/02/03 13:41:38;;;;;;;8.60;7.87;;;10.20;99.90;;;;;;5107677;28;20175;-84
2022/02/03 13:44:06;;;;;;;3.40;2.97;;;10.30;99.90;;;;;;5103406;28;20183;-84
2022/02/03 13:46:35;;;;;;;4.00;3.10;;;10.20;99.90;;;;;;5085778;28;20676;-84
2022/02/03 13:49:01;;;;;;;3.40;3.10;;;10.20;99.90;;;;;;5102896;28;20273;-84
2022/02/03 13:51:30;;;;;;;3.50;3.20;;;10.30;99.90;;;;;;5091829;28;20178;-86
2022/02/03 13:54:09;;;;;;;5.20;4.30;;;10.20;99.90;;;;;;5107777;28;20184;-84
2022/02/03 14:28:20;;;;;;;3.43;3.13;;;9.90;99.80;;;;;;5104011;28;20277;-84
2022/02/03 14:30:49;;;;;;;16.57;14.87;;;9.90;99.90;;;;;;5096389;28;20195;-84
2022/02/03 14:33:26;;;;;;;2.93;2.73;;;9.80;99.90;;;;;;5107573;28;20197;-84
2022/02/03 14:35:51;;;;;;;9.00;8.20;;;9.80;99.90;;;;;;5109300;28;20308;-84
2022/02/03 14:38:26;;;;;;;20.70;18.77;;;9.80;99.90;;;;;;5104699;28;20203;-84
2022/02/03 14:41:09;;;;;;;4.17;3.87;;;9.80;99.90;;;;;;5105959;28;20186;-83
2022/02/03 14:43:35;;;;;;;3.70;3.40;;;9.70;99.90;;;;;;5107304;28;20183;-84
2022/02/03 14:46:02;;;;;;;3.97;3.67;;;9.70;99.90;;;;;;5107526;28;20270;-86
2022/02/03 14:48:28;;;;;;;4.37;3.87;;;9.80;99.90;;;;;;5104590;28;20644;-84
2022/02/03 14:50:56;;;;;;;15.23;14.13;;;9.70;99.90;;;;;;5104014;28;20206;-84
2022/02/03 14:53:49;;;;;;;4.70;4.30;;;9.70;99.90;;;;;;5108940;28;20178;-84
2022/02/03 14:58:54;;;;;;;3.87;3.57;;;9.60;99.90;;;;;;5087921;28;20225;-83
2022/02/03 15:01:20;;;;;;;5.07;4.67;;;9.60;99.90;;;;;;5083298;28;20191;-84
2022/02/03 15:03:46;;;;;;;3.13;2.93;;;9.60;99.90;;;;;;5084603;28;20259;-85
2022/02/03 15:06:16;;;;;;;6.03;5.53;;;9.60;99.90;;;;;;5106037;28;20305;-84
2022/02/03 15:08:56;;;;;;;2.60;2.40;;;9.60;99.90;;;;;;5100424;28;20210;-86
2022/02/03 15:11:42;;;;;;;13.27;12.17;;;9.60;99.90;;;;;;5085664;28;20186;-84
2022/02/03 15:14:08;;;;;;;4.03;3.60;;;9.50;99.90;;;;;;5100093;28;20190;-84
2022/02/03 15:16:34;;;;;;;2.67;2.47;;;9.50;99.90;;;;;;5106946;28;20201;-84
2022/02/03 15:18:59;;;;;;;2.50;2.30;;;9.40;99.90;;;;;;5104672;28;20711;-84
2022/02/03 15:21:25;;;;;;;5.10;4.70;;;9.40;99.90;;;;;;5100075;28;20186;-83
2022/02/03 15:23:51;;;;;;;2.50;2.30;;;9.40;98.30;;;;;;5101040;28;20186;-84
2022/02/03 15:26:16;;;;;;;2.20;2.00;;;9.40;99.20;;;;;;5101704;28;20693;-84
2022/02/03 15:28:42;;;;;;;1.97;1.77;;;9.30;99.70;;;;;;5105581;28;20221;-84
2022/02/03 15:31:08;;;;;;;2.50;2.30;;;9.20;99.20;;;;;;5106441;28;20210;-85
2022/02/03 15:33:35;;;;;;;2.70;2.50;;;9.20;99.90;;;;;;5082184;28;20190;-84
2022/02/03 15:36:05;;;;;;;5.87;5.33;;;9.10;99.90;;;;;;5105613;28;20611;-84
2022/02/03 15:38:37;;;;;;;2.33;2.10;;;9.00;99.80;;;;;;5112371;28;20210;-85
2022/02/03 15:41:06;;;;;;;6.53;6.00;;;9.00;99.70;;;;;;5108139;28;20186;-84
2022/02/03 15:43:39;;;;;;;2.43;2.13;;;9.10;99.30;;;;;;5108346;28;20205;-84
2022/02/03 15:46:06;;;;;;;2.80;2.60;;;9.10;99.00;;;;;;5085376;28;20194;-85
2022/02/03 15:48:44;;;;;;;2.47;2.27;;;9.10;99.70;;;;;;5103369;28;20262;-85
2022/02/03 16:17:22;;;;;;;3.30;3.00;;;8.80;99.90;;;;;;5090578;28;20214;-85
2022/02/03 16:22:25;;;;;;;5.27;2.80;;;8.80;99.90;;;;;;5103708;28;20240;-84
2022/02/03 16:25:07;;;;;;;2.73;2.53;;;8.80;99.90;;;;;;5107829;28;20202;-84
2022/02/03 16:54:27;;;;;;;4.77;2.90;;;8.70;99.90;;;;;;5112882;28;20198;-84
2022/02/03 16:56:58;;;;;;;3.00;2.80;;;8.60;99.90;;;;;;5114575;28;20202;-84
2022/02/03 16:59:26;;;;;;;4.00;3.40;;;8.60;99.90;;;;;;5117505;28;20217;-85
2022/02/03 17:01:51;;;;;;;3.27;2.97;;;8.70;99.90;;;;;;5104055;28;20199;-84
2022/02/03 17:04:18;;;;;;;3.20;2.90;;;8.80;99.90;;;;;;5090923;28;20264;-83
2022/02/03 17:06:47;;;;;;;5.57;3.20;;;8.90;99.90;;;;;;5089104;28;20212;-85
2022/02/03 17:09:14;;;;;;;3.50;3.20;;;8.80;99.90;;;;;;5098591;28;20171;-85
2022/02/03 17:11:40;;;;;;;7.37;6.70;;;8.80;99.90;;;;;;5115221;28;20251;-86
2022/02/03 17:14:06;;;;;;;4.00;3.60;;;8.80;99.90;;;;;;5119345;28;20741;-85
2022/02/03 17:16:32;;;;;;;4.80;3.30;;;8.80;99.90;;;;;;5113162;28;20198;-84
2022/02/03 17:18:58;;;;;;;3.67;3.37;;;8.90;99.90;;;;;;5105231;28;20579;-84
2022/02/03 17:21:28;;;;;;;6.77;3.67;;;8.80;99.90;;;;;;5081293;28;20210;-84
2022/02/03 17:23:53;;;;;;;4.53;4.13;;;8.80;99.90;;;;;;5116249;28;20183;-84
2022/02/03 17:26:27;;;;;;;10.27;4.87;;;8.70;99.90;;;;;;5112119;28;20222;-84
2022/02/03 17:29:20;;;;;;;10.20;9.30;;;8.80;99.90;;;;;;5106826;28;20214;-84
2022/02/03 17:31:54;;;;;;;4.73;3.27;;;8.80;99.90;;;;;;5114334;28;20601;-84
2022/02/03 18:10:07;;;;;;;5.00;3.20;;;8.40;99.90;;;;;;5113058;28;20677;-85
2022/02/03 18:26:02;;;;;;;4.93;4.43;;;8.20;99.90;;;;;;5112988;28;20281;-83
2022/02/03 18:31:58;;;;;;;4.53;4.13;;;8.00;99.90;;;;;;5105862;28;20576;-83
2022/02/03 18:34:18;;;;;;;4.93;4.43;;;7.90;99.90;;;;;;5103536;28;20353;-83
2022/02/03 18:53:08;;;;;;;5.37;4.40;;;7.80;99.90;;;;;;5109654;28;20206;-86
2022/02/03 18:55:51;;;;;;;6.63;5.07;;;7.90;99.90;;;;;;5088309;28;20551;-84
2022/02/03 19:14:44;;;;;;;7.70;6.40;;;7.80;99.90;;;;;;5118488;28;20263;-82
2022/02/03 20:11:25;;;;;;;5.00;4.50;;;8.20;99.90;;;;;;5112936;28;20189;-84
2022/02/03 20:13:50;;;;;;;6.03;4.73;;;8.30;99.90;;;;;;5102084;28;20194;-85
2022/02/03 20:16:20;;;;;;;5.63;5.10;;;8.20;99.90;;;;;;5105180;28;20186;-84
2022/02/03 20:18:46;;;;;;;4.90;4.50;;;8.00;99.90;;;;;;5106345;28;20232;-85
2022/02/03 20:21:12;;;;;;;5.23;4.73;;;8.00;99.90;;;;;;5100420;28;20186;-84
2022/02/03 20:23:42;;;;;;;5.50;4.67;;;7.90;99.90;;;;;;5105368;28;20197;-85
2022/02/03 20:26:09;;;;;;;6.83;4.10;;;7.90;99.90;;;;;;5103448;28;20233;-84
2022/02/03 20:28:35;;;;;;;5.17;4.67;;;7.80;99.90;;;;;;5102825;28;20229;-84
2022/02/03 20:31:01;;;;;;;5.70;4.90;;;7.80;99.90;;;;;;5087323;28;20203;-86
2022/02/03 20:33:27;;;;;;;5.57;4.80;;;7.80;99.90;;;;;;5103282;28;20258;-84
2022/02/03 20:35:53;;;;;;;5.73;5.17;;;8.00;99.90;;;;;;5103261;28;20218;-84
2022/02/03 20:38:19;;;;;;;5.47;4.97;;;8.00;99.90;;;;;;5109915;28;20226;-84
2022/02/03 20:40:46;;;;;;;6.83;4.50;;;8.10;99.90;;;;;;5109938;28;20233;-84
2022/02/03 20:43:13;;;;;;;5.40;4.90;;;8.00;99.90;;;;;;5103060;28;20306;-84
2022/02/03 20:45:43;;;;;;;5.57;5.03;;;8.00;99.90;;;;;;5103694;28;20226;-85
2022/02/03 20:48:10;;;;;;;6.30;5.27;;;8.00;99.90;;;;;;5109627;28;20210;-84
2022/02/03 20:50:37;;;;;;;5.47;4.97;;;7.90;99.90;;;;;;5105115;28;20592;-84
2022/02/03 20:53:04;;;;;;;5.90;5.17;;;8.00;99.90;;;;;;5106468;28;20188;-84
2022/02/03 20:55:30;;;;;;;5.37;4.87;;;7.90;99.90;;;;;;5091359;28;20281;-84
2022/02/03 20:57:56;;;;;;;5.93;5.17;;;7.90;99.90;;;;;;5091505;28;20262;-85
2022/02/03 21:00:30;;;;;;;5.73;5.13;;;7.90;99.90;;;;;;5106126;28;20191;-84
2022/02/03 21:03:04;;;;;;;5.67;4.73;;;7.90;99.90;;;;;;5104760;28;20632;-85
2022/02/03 21:05:30;;;;;;;5.80;5.20;;;7.90;99.90;;;;;;5094430;28;20301;-84
2022/02/03 21:07:57;;;;;;;5.80;5.30;;;7.80;99.90;;;;;;5111859;28;20237;-84
2022/02/03 21:10:29;;;;;;;6.47;5.87;;;7.80;99.90;;;;;;5088283;28;20273;-84
2022/02/03 21:12:55;;;;;;;5.83;5.10;;;7.80;99.90;;;;;;5107409;28;20216;-83
2022/02/03 21:15:26;;;;;;;5.43;5.03;;;7.80;99.90;;;;;;5091560;28;21185;-84
2022/02/03 21:17:54;;;;;;;5.67;4.80;;;7.80;99.90;;;;;;5093991;28;20223;-84
2022/02/03 21:20:22;;;;;;;5.97;5.43;;;7.80;99.90;;;;;;5105506;28;20189;-84
2022/02/03 21:22:49;;;;;;;5.83;5.23;;;7.80;99.90;;;;;;5110324;28;20190;-82
2022/02/03 21:25:29;;;;;;;5.50;4.97;;;7.90;99.90;;;;;;5109407;28;20298;-85
2022/02/03 21:28:02;;;;;;;5.30;4.87;;;7.90;99.90;;;;;;5102058;28;20217;-82
2022/02/03 21:30:28;;;;;;;5.43;4.73;;;7.90;99.90;;;;;;5113638;28;20201;-83
2022/02/03 21:32:54;;;;;;;5.37;4.87;;;8.00;99.90;;;;;;5120177;28;20182;-84
2022/02/03 21:35:22;;;;;;;5.30;4.80;;;8.00;99.90;;;;;;5092659;28;20198;-84
2022/02/03 21:37:48;;;;;;;5.03;4.53;;;8.00;99.90;;;;;;5104673;28;20284;-84
2022/02/03 21:40:16;;;;;;;5.33;4.80;;;7.90;99.90;;;;;;5108859;28;20200;-83
2022/02/03 21:42:42;;;;;;;5.37;4.87;;;8.00;99.90;;;;;;5072049;28;20234;-84
2022/02/03 21:45:09;;;;;;;6.17;5.07;;;7.90;99.90;;;;;;5112038;28;20227;-84
2022/02/03 21:47:35;;;;;;;5.87;4.70;;;7.90;99.90;;;;;;5115698;28;20221;-84
2022/02/03 21:50:04;;;;;;;5.27;4.77;;;8.00;99.90;;;;;;5091964;28;20195;-84
2022/02/03 21:52:36;;;;;;;5.53;5.03;;;8.00;99.90;;;;;;5102755;28;20190;-83
2022/02/03 21:55:07;;;;;;;7.00;5.00;;;7.90;99.90;;;;;;5109976;28;20250;-84
2022/02/03 21:57:33;;;;;;;5.43;4.93;;;7.90;99.90;;;;;;5112856;28;20218;-84
2022/02/03 22:00:00;;;;;;;5.20;4.63;;;7.90;99.90;;;;;;5107094;28;20187;-84
2022/02/03 22:02:26;;;;;;;5.60;5.00;;;7.80;99.90;;;;;;5100597;28;20193;-85
2022/02/03 22:04:53;;;;;;;6.00;5.17;;;7.80;99.90;;;;;;5115561;28;20239;-84
2022/02/03 22:07:19;;;;;;;4.60;4.20;;;7.90;99.90;;;;;;5105436;28;20232;-84
2022/02/03 22:09:45;;;;;;;5.17;4.63;;;7.80;99.90;;;;;;5105410;28;20182;-83
2022/02/03 22:12:11;;;;;;;5.00;4.40;;;7.80;99.90;;;;;;5114423;28;20373;-83
2022/02/03 22:14:37;;;;;;;4.80;4.40;;;7.80;99.90;;;;;;5087640;28;20191;-84
2022/02/03 22:17:03;;;;;;;4.83;4.37;;;7.80;99.90;;;;;;5108460;28;20746;-84
2022/02/03 22:19:29;;;;;;;4.87;4.47;;;7.80;99.90;;;;;;5089308;28;20711;-84
2022/02/03 22:22:34;;;;;;;4.57;4.17;;;7.70;99.90;;;;;;5106709;28;20209;-84
2022/02/03 22:28:04;;;;;;;4.20;3.80;;;7.80;99.90;;;;;;5089374;28;20589;-84
2022/02/03 22:49:04;;;;;;;4.80;4.07;;;7.60;99.90;;;;;;5091673;28;20262;-84
2022/02/03 22:51:35;;;;;;;4.03;3.63;;;7.60;99.90;;;;;;5090430;28;20175;-83
2022/02/03 22:54:01;;;;;;;4.20;3.90;;;7.60;99.90;;;;;;5090985;28;20283;-83
2022/02/03 22:56:27;;;;;;;7.07;3.87;;;7.60;99.90;;;;;;5082470;28;20192;-83
2022/02/03 22:59:08;;;;;;;4.63;3.30;;;7.50;99.90;;;;;;5099425;28;20248;-85
2022/02/03 23:01:34;;;;;;;4.40;3.60;;;7.50;99.90;;;;;;5092705;28;20195;-85
2022/02/03 23:04:00;;;;;;;3.83;3.53;;;7.40;99.90;;;;;;5096006;28;20219;-84
2022/02/03 23:06:26;;;;;;;3.57;3.27;;;7.50;99.90;;;;;;5084032;28;20239;-84
2022/02/03 23:08:58;;;;;;;8.33;3.37;;;7.50;99.90;;;;;;5088446;28;20208;-84
2022/02/03 23:11:37;;;;;;;4.17;3.60;;;7.50;99.90;;;;;;5083787;28;20214;-84
2022/02/03 23:14:21;;;;;;;3.80;3.50;;;7.50;99.90;;;;;;5087541;28;20209;-84
2022/02/03 23:24:32;;;;;;;4.70;3.47;;;7.50;99.90;;;;;;5090918;28;20645;-84
2022/02/03 23:27:13;;;;;;;4.13;3.77;;;7.50;99.90;;;;;;5094157;28;20289;-85
2022/02/03 23:29:40;;;;;;;3.97;3.63;;;7.50;99.90;;;;;;5094636;28;20187;-84
2022/02/03 23:32:09;;;;;;;3.63;3.30;;;7.50;99.90;;;;;;5108075;28;20187;-84
2022/02/03 23:34:36;;;;;;;4.40;3.97;;;7.50;99.90;;;;;;5084724;28;20225;-84
2022/02/03 23:37:03;;;;;;;4.33;3.93;;;7.40;99.90;;;;;;5116060;28;20199;-83
2022/02/03 23:39:40;;;;;;;3.30;3.00;;;7.40;99.90;;;;;;5105208;28;20282;-83
2022/02/03 23:45:02;;;;;;;3.50;3.20;;;7.40;99.90;;;;;;5107261;28;20204;-84
